Time;durP1;ratioP1;P1;durP2;ratioP2;P2;SDS_P1;SDS_P2;PMS_P1;PMS_P2;Temp;Humidity;BMP_temperature;BMP_pressure;BME280_temperature;BME280_humidity;BME280_pressure;Samples;Min_cycle;Max_cycle;Signal;HPM_P1;HPM_P2
2021/05/01 00:01:38;;;;;;;26.43;20.90;;;;;;;6.45;95.92;100047.20;640141;221;24820;-80
2021/05/01 00:04:06;;;;;;;26.80;20.40;;;;;;;6.60;94.47;100041.27;634014;225;24839;-80
2021/05/01 00:06:34;;;;;;;22.37;18.37;;;;;;;6.41;95.09;100048.39;640311;222;24796;-79
2021/05/01 00:09:01;;;;;;;26.03;21.77;;;;;;;6.42;95.16;100047.45;626737;225;24845;-79
2021/05/01 00:11:30;;;;;;;31.13;26.47;;;;;;;7.29;92.36;100045.95;639957;221;32829;-78
2021/05/01 00:13:58;;;;;;;27.17;24.20;;;;;;;7.34;91.10;100030.87;646102;219;32662;-79
2021/05/01 00:16:25;;;;;;;26.13;21.53;;;;;;;6.68;93.47;100040.66;632902;224;24856;-79
2021/05/01 00:18:53;;;;;;;29.77;23.20;;;;;;;6.76;94.21;100052.03;641671;220;24879;-79
2021/05/01 00:21:21;;;;;;;27.57;21.93;;;;;;;6.71;94.10;100048.98;641342;221;24794;-79
2021/05/01 00:23:49;;;;;;;33.00;22.10;;;;;;;6.59;94.48;100041.39;645307;220;24812;-79
2021/05/01 00:26:17;;;;;;;29.20;22.57;;;;;;;6.47;95.37;100044.48;628984;226;24848;-79
2021/05/01 00:28:44;;;;;;;32.80;23.57;;;;;;;6.48;95.97;100046.98;628859;226;24854;-79
2021/05/01 00:31:13;;;;;;;32.80;23.40;;;;;;;6.53;95.30;100046.59;632659;225;24882;-79
2021/05/01 00:33:41;;;;;;;29.83;22.87;;;;;;;6.59;94.70;100043.98;632053;226;24909;-79
2021/05/01 00:36:09;;;;;;;31.97;23.43;;;;;;;6.50;93.98;100042.98;640214;224;24793;-79
2021/05/01 00:38:38;;;;;;;29.50;23.07;;;;;;;6.44;94.97;100036.98;646891;221;29034;-79
2021/05/01 00:41:06;;;;;;;28.70;21.43;;;;;;;6.30;94.79;100034.22;643859;221;24805;-79
2021/05/01 00:43:40;;;;;;;28.97;22.37;;;;;;;6.20;93.23;100028.17;646636;221;24782;-79
2021/05/01 00:46:09;;;;;;;34.90;23.27;;;;;;;5.79;96.40;100037.36;644894;221;25117;-78
2021/05/01 00:48:37;;;;;;;32.90;23.13;;;;;;;5.99;95.72;100032.42;641572;221;24824;-79
2021/05/01 00:51:05;;;;;;;35.47;25.20;;;;;;;6.04;95.22;100028.53;635670;226;24845;-79
2021/05/01 00:53:34;;;;;;;25.97;20.50;;;;;;;6.07;95.31;100035.23;633761;225;25129;-79
2021/05/01 00:56:02;;;;;;;29.98;25.43;;;;;;;6.62;90.78;100014.05;628548;225;32861;-79
2021/05/01 00:58:31;;;;;;;29.43;21.83;;;;;;;5.84;92.97;100017.64;632882;225;23707;-79
2021/05/01 01:01:16;;;;;;;31.07;24.40;;;;;;;5.73;95.41;100027.50;644611;221;24855;-80
2021/05/01 01:03:40;;;;;;;30.80;22.23;;;;;;;5.83;96.04;100028.44;625760;226;24862;-79
2021/05/01 01:06:08;;;;;;;31.80;22.97;;;;;;;5.77;96.05;100025.49;623749;226;24859;-79
2021/05/01 01:08:36;;;;;;;33.57;21.43;;;;;;;5.71;95.71;100019.06;628596;226;24865;-79
2021/05/01 01:11:04;;;;;;;26.37;20.83;;;;;;;5.74;96.04;100015.41;631586;226;24943;-79
2021/05/01 01:13:31;;;;;;;28.93;22.27;;;;;;;5.80;97.03;100011.91;630470;226;24837;-79
2021/05/01 01:15:59;;;;;;;35.43;25.70;;;;;;;6.01;96.57;100024.09;645770;221;24827;-79
2021/05/01 01:18:27;;;;;;;32.00;24.30;;;;;;;6.02;96.02;100026.55;629671;223;24828;-80
2021/05/01 01:20:55;;;;;;;34.07;23.73;;;;;;;5.99;96.14;100033.24;627162;225;24861;-79
2021/05/01 01:23:23;;;;;;;29.73;21.87;;;;;;;5.69;96.42;100026.09;645065;220;24821;-80
2021/05/01 01:25:51;;;;;;;29.20;21.90;;;;;;;5.47;96.55;100029.97;637931;223;25013;-80
2021/05/01 01:28:20;;;;;;;30.03;22.83;;;;;;;5.59;97.85;100036.30;640410;221;24822;-80
2021/05/01 01:30:48;;;;;;;31.75;25.30;;;;;;;6.22;94.70;100019.83;621831;225;43978;-79
2021/05/01 01:33:15;;;;;;;31.43;23.07;;;;;;;5.67;95.04;100026.69;630878;225;23755;-81
2021/05/01 01:35:43;;;;;;;28.27;21.67;;;;;;;5.64;95.65;100026.47;639089;220;25477;-79
2021/05/01 01:38:11;;;;;;;32.70;23.60;;;;;;;5.55;95.83;100021.19;632664;225;24868;-80
2021/05/01 01:40:41;;;;;;;34.33;24.67;;;;;;;5.79;96.30;100028.33;647977;221;24894;-80
2021/05/01 01:43:09;;;;;;;33.00;25.07;;;;;;;5.79;96.12;100023.17;635536;225;24855;-80
2021/05/01 01:45:37;;;;;;;35.57;26.63;;;;;;;5.79;97.06;100033.48;635012;225;28051;-79
2021/05/01 01:48:05;;;;;;;37.33;25.13;;;;;;;5.71;97.70;100037.59;643165;221;24796;-78
2021/05/01 01:50:33;;;;;;;35.73;26.40;;;;;;;5.90;96.74;100029.61;642688;222;24801;-80
2021/05/01 01:53:01;;;;;;;35.50;26.10;;;;;;;5.92;95.95;100034.68;637169;221;24810;-80
2021/05/01 01:55:30;;;;;;;35.97;25.80;;;;;;;5.86;95.77;100028.66;626833;225;24813;-79
2021/05/01 01:57:57;;;;;;;40.70;25.90;;;;;;;5.87;96.48;100030.30;629642;225;24857;-79
2021/05/01 02:00:25;;;;;;;36.13;24.27;;;;;;;5.55;97.43;100039.23;645447;221;24831;-80
2021/05/01 02:02:53;;;;;;;34.60;25.13;;;;;;;5.65;97.39;100035.84;638954;221;24814;-81
2021/05/01 02:05:21;;;;;;;34.97;23.40;;;;;;;5.68;97.32;100032.20;629050;225;24872;-79
2021/05/01 02:07:49;;;;;;;36.87;26.63;;;;;;;5.68;97.54;100033.96;626511;225;24859;-79
2021/05/01 02:10:16;;;;;;;36.70;25.50;;;;;;;5.53;97.64;100032.09;641054;222;24810;-80
2021/05/01 02:12:44;;;;;;;35.37;25.00;;;;;;;5.57;96.95;100015.44;647049;221;24811;-80
2021/05/01 02:15:13;;;;;;;34.43;25.40;;;;;;;5.30;96.90;100019.17;642086;222;24793;-81
2021/05/01 02:17:41;;;;;;;32.37;23.77;;;;;;;5.22;96.84;100016.37;636166;225;24875;-81
2021/05/01 02:20:09;;;;;;;29.83;22.07;;;;;;;5.12;97.28;100023.16;642529;221;24823;-82
2021/05/01 02:22:38;;;;;;;29.30;21.63;;;;;;;4.86;96.98;100016.53;627777;225;24879;-81
2021/05/01 02:25:08;;;;;;;28.97;21.10;;;;;;;4.61;97.60;100015.75;626259;225;24841;-81
2021/05/01 02:27:42;;;;;;;26.13;19.70;;;;;;;4.53;96.78;100010.36;641127;221;24812;-81
2021/05/01 02:30:11;;;;;;;31.40;24.33;;;;;;;4.23;98.39;100000.99;628216;225;24801;-82
2021/05/01 02:32:39;;;;;;;30.60;20.77;;;;;;;3.67;100.00;100016.09;632655;225;24843;-82
2021/05/01 02:35:08;;;;;;;29.27;21.30;;;;;;;3.53;100.00;100020.44;628320;225;24863;-80
2021/05/01 02:37:36;;;;;;;28.23;20.87;;;;;;;3.85;100.00;100016.09;634383;225;24913;-81
2021/05/01 02:40:04;;;;;;;27.90;20.17;;;;;;;3.82;100.00;100002.17;648412;220;24836;-81
2021/05/01 02:42:32;;;;;;;33.63;22.20;;;;;;;3.76;100.00;100000.01;642346;220;24966;-81
2021/05/01 02:45:00;;;;;;;28.00;21.53;;;;;;;3.77;100.00;99996.50;644263;221;26099;-82
2021/05/01 02:47:28;;;;;;;31.13;22.47;;;;;;;4.01;100.00;99995.25;628392;225;24871;-81
2021/05/01 02:49:56;;;;;;;31.60;22.13;;;;;;;4.10;100.00;99992.03;645051;220;24829;-82
2021/05/01 02:52:24;;;;;;;37.33;22.43;;;;;;;4.36;100.00;99992.72;639494;221;24852;-79
2021/05/01 02:54:55;;;;;;;30.60;22.63;;;;;;;4.53;99.24;99989.76;635981;225;25884;-79
2021/05/01 02:57:24;;;;;;;30.00;21.40;;;;;;;4.43;99.05;99987.02;627713;225;24876;-79
2021/05/01 02:59:52;;;;;;;30.47;20.83;;;;;;;4.26;99.33;99977.60;638403;221;24830;-80
2021/05/01 03:02:20;;;;;;;28.30;20.43;;;;;;;4.22;98.89;99985.17;633117;225;24842;-80
2021/05/01 03:04:48;;;;;;;26.67;20.03;;;;;;;4.26;99.01;99990.00;646971;222;24823;-80
2021/05/01 03:07:17;;;;;;;25.47;19.60;;;;;;;4.29;99.21;99988.95;631614;225;26120;-81
2021/05/01 03:09:45;;;;;;;28.90;19.93;;;;;;;4.23;99.01;99975.25;634845;225;24856;-81
2021/05/01 03:12:13;;;;;;;26.00;20.27;;;;;;;4.07;99.05;99967.32;645037;221;25062;-81
2021/05/01 03:14:42;;;;;;;25.00;19.70;;;;;;;4.19;98.13;99965.63;647402;221;24808;-81
2021/05/01 03:17:11;;;;;;;23.70;17.63;;;;;;;4.35;98.00;99960.19;638829;224;24876;-81
2021/05/01 03:19:39;;;;;;;25.40;18.70;;;;;;;4.26;97.71;99955.26;644258;221;24805;-79
2021/05/01 03:22:07;;;;;;;23.63;17.50;;;;;;;4.31;97.70;99963.92;641348;221;24843;-79
2021/05/01 03:24:36;;;;;;;26.07;17.23;;;;;;;4.09;96.39;99956.48;644321;221;28021;-81
2021/05/01 03:27:03;;;;;;;23.20;17.53;;;;;;;4.02;97.30;99960.41;644023;221;24781;-81
2021/05/01 03:29:31;;;;;;;26.35;21.60;;;;;;;4.69;94.98;99957.25;624348;226;32899;-81
2021/05/01 03:31:59;;;;;;;22.70;18.03;;;;;;;4.28;95.69;99957.72;629241;225;26929;-81
2021/05/01 03:34:27;;;;;;;26.00;18.87;;;;;;;4.14;95.78;99959.53;634731;225;24886;-81
2021/05/01 03:36:55;;;;;;;24.47;17.87;;;;;;;4.30;95.43;99960.99;630462;225;24861;-81
2021/05/01 03:39:22;;;;;;;26.37;17.60;;;;;;;4.20;95.07;99963.41;628758;226;24860;-82
2021/05/01 03:41:51;;;;;;;20.53;16.20;;;;;;;3.95;94.45;99957.93;631856;225;24818;-81
2021/05/01 03:44:18;;;;;;;16.77;13.93;;;;;;;3.89;94.97;99963.49;640043;222;25886;-81
2021/05/01 03:46:46;;;;;;;20.30;17.30;;;;;;;4.35;93.54;99956.32;634235;221;32751;-81
2021/05/01 03:49:15;;;;;;;20.17;15.67;;;;;;;3.85;94.35;99958.22;641231;220;26955;-81
2021/05/01 03:51:44;;;;;;;25.47;18.93;;;;;;;3.92;94.95;99963.73;650730;221;24800;-81
2021/05/01 03:54:12;;;;;;;25.47;18.93;;;;;;;3.86;95.27;99969.69;647959;220;25999;-80
2021/05/01 03:56:39;;;;;;;26.02;20.85;;;;;;;4.49;93.20;99967.72;622631;226;33000;-81
2021/05/01 03:59:07;;;;;;;20.50;17.00;;;;;;;3.83;93.17;99960.08;643512;221;23729;-82
2021/05/01 04:01:35;;;;;;;20.97;16.77;;;;;;;3.70;94.65;99967.84;648097;221;24846;-81
2021/05/01 04:04:04;;;;;;;20.80;16.67;;;;;;;3.57;94.78;99976.87;646789;220;25845;-81
2021/05/01 04:06:33;;;;;;;21.67;16.70;;;;;;;3.80;95.59;99981.70;640743;220;24796;-81
2021/05/01 04:09:01;;;;;;;21.33;15.60;;;;;;;3.82;94.59;99964.88;643054;221;24790;-80
2021/05/01 04:11:29;;;;;;;18.77;15.00;;;;;;;3.81;94.01;99952.95;628129;226;24837;-81
2021/05/01 04:13:57;;;;;;;19.07;14.97;;;;;;;3.67;93.52;99938.95;646998;221;24797;-81
2021/05/01 04:16:25;;;;;;;21.73;15.40;;;;;;;3.45;93.83;99952.00;635324;225;29124;-81
2021/05/01 04:18:52;;;;;;;21.10;15.57;;;;;;;3.55;93.46;99953.48;627579;226;24925;-81
2021/05/01 04:21:20;;;;;;;22.63;16.10;;;;;;;3.23;94.24;99951.83;626493;225;24892;-81
2021/05/01 04:23:48;;;;;;;18.40;14.67;;;;;;;3.19;94.51;99961.96;632373;225;24931;-81
2021/05/01 04:26:20;;;;;;;21.60;16.50;;;;;;;3.25;96.00;99963.67;631450;226;24890;-81
2021/05/01 04:28:47;;;;;;;21.43;17.30;;;;;;;3.26;96.30;99964.48;640233;221;24801;-80
2021/05/01 04:31:15;;;;;;;23.90;18.60;;;;;;;3.39;96.65;99956.30;637341;221;24808;-81
2021/05/01 04:33:43;;;;;;;22.50;17.67;;;;;;;3.63;95.85;99954.22;626354;225;24850;-81
2021/05/01 04:36:11;;;;;;;22.60;17.60;;;;;;;3.52;95.82;99958.38;630469;225;24901;-81
2021/05/01 04:38:39;;;;;;;25.33;18.97;;;;;;;3.73;96.01;99948.33;634470;226;24856;-81
2021/05/01 04:41:07;;;;;;;20.23;15.93;;;;;;;3.76;95.73;99947.28;641444;221;24813;-81
2021/05/01 04:43:35;;;;;;;20.40;16.53;;;;;;;3.78;96.34;99938.98;644153;221;24792;-81
2021/05/01 04:46:02;;;;;;;25.93;16.37;;;;;;;3.85;96.07;99941.50;642476;222;24804;-81
2021/05/01 04:48:31;;;;;;;22.40;16.83;;;;;;;3.98;95.34;99938.88;634713;225;24843;-82
2021/05/01 04:50:59;;;;;;;22.30;16.90;;;;;;;4.10;95.45;99937.53;641521;221;24800;-81
2021/05/01 04:53:28;;;;;;;24.63;18.50;;;;;;;4.20;95.34;99940.70;633559;225;24843;-80
2021/05/01 04:55:56;;;;;;;24.93;18.33;;;;;;;4.53;94.10;99933.11;641711;221;24825;-81
2021/05/01 04:58:24;;;;;;;19.53;16.20;;;;;;;4.31;94.15;99931.28;634398;225;24860;-81
2021/05/01 05:00:53;;;;;;;20.67;16.07;;;;;;;4.36;93.99;99935.64;642947;221;25107;-81
2021/05/01 05:03:21;;;;;;;22.20;17.17;;;;;;;4.65;93.94;99948.95;646168;221;24920;-81
2021/05/01 05:05:48;;;;;;;23.60;17.77;;;;;;;4.71;92.82;99952.80;641573;220;27990;-82
2021/05/01 05:08:16;;;;;;;23.33;18.43;;;;;;;4.65;92.67;99957.95;641509;220;24826;-81
2021/05/01 05:10:44;;;;;;;25.80;18.60;;;;;;;4.47;93.80;99961.86;644921;221;24799;-81
2021/05/01 05:13:13;;;;;;;20.77;16.77;;;;;;;4.50;92.72;99962.92;641333;220;24775;-81
2021/05/01 05:15:41;;;;;;;20.53;15.80;;;;;;;4.70;92.38;99964.86;641352;221;24794;-81
2021/05/01 05:18:10;;;;;;;19.97;15.90;;;;;;;5.09;92.62;99963.29;632914;225;24824;-81
2021/05/01 05:20:38;;;;;;;22.10;17.30;;;;;;;5.57;92.40;99957.40;641434;221;25887;-80
2021/05/01 05:23:05;;;;;;;25.43;18.50;;;;;;;5.89;91.42;99958.73;638695;221;24827;-82
2021/05/01 05:25:33;;;;;;;23.93;18.87;;;;;;;5.85;91.42;99954.29;631274;225;24906;-81
2021/05/01 05:28:01;;;;;;;28.87;22.98;;;;;;;6.70;89.06;99956.89;627694;226;32932;-81
2021/05/01 05:30:29;;;;;;;27.97;22.77;;;;;;;6.76;89.49;99957.70;643767;221;23705;-80
2021/05/01 05:32:59;;;;;;;32.50;23.53;;;;;;;6.82;88.75;99966.70;642920;221;24805;-79
2021/05/01 05:35:26;;;;;;;25.27;19.70;;;;;;;6.71;88.73;99968.05;629769;225;24846;-80
2021/05/01 05:37:54;;;;;;;26.87;20.17;;;;;;;6.90;88.57;99972.06;629602;225;25083;-78
2021/05/01 05:40:22;;;;;;;26.90;21.00;;;;;;;7.38;88.28;99964.52;643284;221;24835;-79
2021/05/01 05:42:50;;;;;;;28.40;23.77;;;;;;;8.03;85.84;99954.59;643875;221;32956;-78
2021/05/01 05:45:24;;;;;;;28.30;22.10;;;;;;;7.58;86.93;99960.20;645881;222;24001;-79
2021/05/01 05:47:51;;;;;;;27.83;19.87;;;;;;;7.54;86.80;99963.20;627034;226;24863;-79
2021/05/01 05:50:19;;;;;;;26.30;19.73;;;;;;;7.69;86.21;99951.05;641677;221;24803;-79
2021/05/01 05:52:47;;;;;;;29.00;21.03;;;;;;;8.11;87.01;99944.34;631816;226;24865;-78
2021/05/01 05:55:15;;;;;;;23.80;19.33;;;;;;;8.18;86.72;99937.69;636079;224;24885;-80
2021/05/01 05:57:47;;;;;;;20.17;16.23;;;;;;;8.74;85.48;99926.59;632886;225;24867;-78
2021/05/01 06:00:16;;;;;;;22.30;18.00;;;;;;;9.09;83.70;99912.95;626366;225;25081;-79
2021/05/01 06:02:47;;;;;;;23.73;20.23;;;;;;;9.47;81.65;99900.27;633909;224;43431;-81
2021/05/01 06:05:17;;;;;;;24.20;20.75;;;;;;;9.35;82.31;99910.52;635022;221;32727;-79
2021/05/01 06:07:45;;;;;;;24.50;20.87;;;;;;;8.99;84.97;99933.40;631594;225;23671;-78
2021/05/01 06:10:13;;;;;;;24.03;19.90;;;;;;;9.32;84.75;99940.66;633519;225;23865;-79
2021/05/01 06:12:41;;;;;;;24.65;21.23;;;;;;;9.98;82.39;99927.88;639391;220;32750;-79
2021/05/01 06:15:10;;;;;;;25.30;21.37;;;;;;;9.82;83.28;99929.83;633095;224;23715;-80
2021/05/01 06:17:38;;;;;;;23.80;20.83;;;;;;;9.74;82.22;99925.87;641156;221;24814;-79
2021/05/01 06:20:07;;;;;;;22.90;19.50;;;;;;;9.69;81.30;99930.67;637397;221;24800;-79
2021/05/01 06:22:35;;;;;;;23.33;18.00;;;;;;;9.51;82.08;99931.46;640734;221;30604;-79
2021/05/01 06:25:03;;;;;;;26.33;19.03;;;;;;;9.51;83.07;99936.66;642197;221;25095;-79
2021/05/01 06:27:33;;;;;;;21.17;17.30;;;;;;;9.61;82.31;99933.20;629958;225;24627;-79
2021/05/01 06:30:01;;;;;;;22.70;17.40;;;;;;;9.55;83.03;99928.09;628588;226;24838;-78
2021/05/01 06:32:29;;;;;;;20.90;18.60;;;;;;;10.11;80.63;99921.82;630929;225;32875;-79
2021/05/01 06:34:56;;;;;;;23.37;18.07;;;;;;;9.49;83.78;99933.39;637278;225;24820;-79
2021/05/01 06:37:24;;;;;;;23.23;19.30;;;;;;;9.46;84.21;99945.37;634602;225;24933;-79
2021/05/01 06:39:55;;;;;;;22.57;18.93;;;;;;;9.74;83.57;99946.64;645759;221;23877;-80
2021/05/01 06:42:20;;;;;;;28.10;18.97;;;;;;;9.58;82.49;99942.09;627601;225;26044;-79
2021/05/01 06:44:52;;;;;;;26.77;20.47;;;;;;;9.36;84.37;99950.27;641695;222;24829;-79
2021/05/01 06:47:24;;;;;;;22.93;19.30;;;;;;;9.78;83.11;99958.38;645156;221;23837;-79
2021/05/01 06:49:53;;;;;;;27.40;20.20;;;;;;;10.11;82.68;99954.30;640597;221;28104;-80
2021/05/01 06:52:23;;;;;;;25.10;20.10;;;;;;;10.35;82.12;99945.45;645657;221;23837;-79
2021/05/01 06:54:50;;;;;;;25.00;20.10;;;;;;;10.47;81.55;99938.23;626937;226;25141;-79
2021/05/01 06:57:21;;;;;;;29.20;22.90;;;;;;;10.61;80.48;99944.68;644831;221;23817;-79
2021/05/01 06:59:51;;;;;;;30.67;22.60;;;;;;;10.72;80.51;99938.42;644739;221;24820;-79
2021/05/01 07:02:19;;;;;;;31.03;22.57;;;;;;;11.03;80.53;99933.06;641088;221;25371;-80
2021/05/01 07:04:51;;;;;;;30.80;23.70;;;;;;;10.78;79.05;99929.50;626898;225;28122;-79
2021/05/01 07:07:17;;;;;;;32.13;24.53;;;;;;;10.39;81.35;99929.06;629464;225;24653;-79
2021/05/01 07:09:45;;;;;;;31.70;23.77;;;;;;;10.50;81.81;99938.42;641080;221;24949;-81
2021/05/01 07:12:14;;;;;;;31.40;23.90;;;;;;;10.62;80.81;99934.61;641452;221;23845;-79
2021/05/01 07:14:43;;;;;;;32.10;25.33;;;;;;;10.94;80.00;99936.09;636829;221;32718;-80
2021/05/01 07:17:10;;;;;;;37.40;28.90;;;;;;;10.88;80.02;99922.91;632147;225;32738;-79
2021/05/01 07:19:38;;;;;;;37.40;26.77;;;;;;;10.19;83.62;99940.58;637599;225;30190;-79
2021/05/01 07:22:06;;;;;;;35.50;25.97;;;;;;;10.35;83.63;99949.84;640805;223;24805;-79
2021/05/01 07:24:35;;;;;;;34.20;25.83;;;;;;;10.46;83.51;99960.02;642138;222;24773;-79
2021/05/01 07:27:03;;;;;;;35.87;26.57;;;;;;;10.31;83.35;99958.91;643017;222;24799;-78
2021/05/01 07:29:33;;;;;;;32.27;24.70;;;;;;;10.26;84.08;99961.13;646329;221;24842;-79
2021/05/01 07:32:02;;;;;;;38.53;29.57;;;;;;;10.27;85.32;99961.45;638860;221;24804;-79
2021/05/01 07:34:35;;;;;;;40.57;30.20;;;;;;;10.14;84.75;99965.72;643168;220;24792;-79
2021/05/01 07:37:03;;;;;;;35.40;27.57;;;;;;;10.16;83.66;99966.88;642085;220;24813;-79
2021/05/01 07:39:32;;;;;;;34.17;27.00;;;;;;;10.12;84.03;99959.34;645517;221;25916;-79
2021/05/01 07:42:00;;;;;;;34.27;26.80;;;;;;;9.98;84.57;99974.63;632787;225;24874;-79
2021/05/01 07:44:28;;;;;;;35.05;28.60;;;;;;;10.37;84.19;99971.30;639121;221;32681;-79
2021/05/01 07:46:57;;;;;;;38.00;29.10;;;;;;;10.18;83.65;99960.55;636706;225;23692;-79
2021/05/01 07:49:26;;;;;;;37.63;27.83;;;;;;;10.07;85.55;99962.88;647304;221;24020;-79
2021/05/01 07:51:53;;;;;;;33.00;26.13;;;;;;;10.10;85.05;99953.48;644043;221;24799;-78
2021/05/01 07:54:21;;;;;;;38.53;28.03;;;;;;;10.31;84.76;99954.53;631601;225;27010;-79
2021/05/01 07:56:48;;;;;;;34.50;28.50;;;;;;;10.32;84.18;99947.06;634500;225;24883;-77
2021/05/01 07:59:16;;;;;;;38.50;28.73;;;;;;;10.51;84.91;99949.14;628373;226;23950;-77
2021/05/01 08:01:44;;;;;;;41.03;28.73;;;;;;;10.65;85.22;99943.40;638418;221;24809;-79
2021/05/01 08:04:12;;;;;;;36.47;27.77;;;;;;;10.47;83.23;99940.03;642225;221;24808;-78
2021/05/01 08:06:40;;;;;;;37.20;28.70;;;;;;;10.47;83.23;99940.84;644963;221;23824;-78
2021/05/01 08:09:08;;;;;;;37.73;28.90;;;;;;;10.59;83.00;99939.63;640683;222;24992;-77
2021/05/01 08:11:36;;;;;;;40.35;31.85;;;;;;;10.89;80.60;99929.25;640268;221;32993;-78
2021/05/01 08:14:04;;;;;;;40.78;31.60;;;;;;;11.03;79.87;99923.96;630069;225;32985;-79
2021/05/01 08:16:33;;;;;;;36.00;28.80;;;;;;;11.00;81.60;99932.08;630588;225;23698;-78
2021/05/01 08:19:02;;;;;;;36.30;27.43;;;;;;;11.17;78.99;99923.86;639485;221;24808;-78
2021/05/01 08:21:29;;;;;;;37.13;27.87;;;;;;;11.59;78.48;99931.17;630999;225;24829;-79
2021/05/01 08:23:59;;;;;;;39.90;29.40;;;;;;;11.33;79.92;99930.92;634823;225;24842;-78
2021/05/01 08:26:27;;;;;;;40.20;29.10;;;;;;;11.29;79.02;99934.33;628440;225;24902;-81
2021/05/01 08:28:55;;;;;;;36.80;27.50;;;;;;;11.16;78.81;99934.77;641587;221;24831;-79
2021/05/01 08:31:22;;;;;;;36.53;27.60;;;;;;;10.99;80.08;99941.68;639555;221;24836;-79
2021/05/01 08:33:52;;;;;;;40.83;30.50;;;;;;;11.24;80.09;99949.09;631398;225;24878;-78
2021/05/01 08:36:21;;;;;;;42.87;30.53;;;;;;;11.14;79.07;99940.61;630044;225;24905;-80
2021/05/01 08:38:50;;;;;;;39.37;28.97;;;;;;;11.12;79.31;99946.47;627050;226;24863;-79
2021/05/01 08:41:18;;;;;;;41.20;29.10;;;;;;;11.17;79.79;99952.01;632235;225;24890;-79
2021/05/01 08:43:46;;;;;;;39.17;29.30;;;;;;;11.28;79.87;99953.05;643124;220;25035;-79
2021/05/01 08:46:14;;;;;;;40.57;29.50;;;;;;;11.32;79.61;99957.93;629925;225;24835;-78
2021/05/01 08:48:44;;;;;;;39.03;28.97;;;;;;;11.26;79.64;99960.20;630237;225;24920;-79
2021/05/01 08:51:13;;;;;;;31.17;25.07;;;;;;;11.37;77.91;99951.76;629654;225;24868;-78
2021/05/01 08:53:41;;;;;;;36.10;27.60;;;;;;;11.55;77.58;99945.50;628585;225;24857;-78
2021/05/01 08:56:09;;;;;;;38.33;28.23;;;;;;;11.56;77.70;99939.80;614161;229;25082;-79
2021/05/01 08:58:38;;;;;;;35.40;28.13;;;;;;;11.38;80.02;99941.67;642262;222;24810;-79
2021/05/01 09:01:08;;;;;;;36.63;26.50;;;;;;;11.20;79.27;99929.56;640616;221;24831;-79
2021/05/01 09:03:36;;;;;;;37.33;28.13;;;;;;;11.14;79.67;99936.70;629734;225;27003;-79
2021/05/01 09:06:08;;;;;;;34.17;26.67;;;;;;;11.26;79.76;99935.92;641068;221;24830;-79
2021/05/01 09:08:37;;;;;;;36.47;27.83;;;;;;;11.51;77.83;99934.23;629464;225;24824;-78
2021/05/01 09:11:07;;;;;;;35.87;25.60;;;;;;;11.45;77.63;99928.37;640772;221;24811;-78
2021/05/01 09:13:35;;;;;;;34.27;26.87;;;;;;;11.45;78.29;99927.06;642655;220;24810;-78
2021/05/01 09:16:03;;;;;;;36.67;27.33;;;;;;;11.64;77.32;99933.30;628488;225;24833;-79
2021/05/01 09:18:44;;;;;;;30.70;24.10;;;;;;;11.75;77.45;99941.31;644084;221;24865;-79
2021/05/01 09:21:13;;;;;;;32.43;23.70;;;;;;;12.18;76.07;99927.23;640192;221;24805;-79
2021/05/01 09:23:42;;;;;;;31.47;21.47;;;;;;;12.05;74.94;99909.45;629115;225;28122;-78
2021/05/01 09:26:10;;;;;;;30.70;23.70;;;;;;;11.92;75.86;99909.61;641778;221;24875;-79
2021/05/01 09:28:42;;;;;;;31.20;22.80;;;;;;;11.72;76.78;99908.58;627663;225;24857;-78
2021/05/01 09:31:12;;;;;;;33.93;24.90;;;;;;;11.79;77.00;99909.59;626470;225;24866;-79
2021/05/01 09:33:41;;;;;;;29.73;23.80;;;;;;;11.79;76.35;99913.49;626734;225;24890;-79
2021/05/01 09:36:11;;;;;;;31.65;25.12;;;;;;;12.22;75.96;99915.98;635605;220;43995;-78
2021/05/01 09:38:41;;;;;;;29.63;24.02;;;;;;;12.04;76.11;99922.66;627647;225;32929;-79
2021/05/01 09:41:12;;;;;;;30.83;23.63;;;;;;;12.11;76.61;99914.53;642416;221;23724;-79
2021/05/01 09:43:56;;;;;;;29.87;23.70;;;;;;;12.25;77.05;99924.31;638036;221;23847;-79
2021/05/01 09:46:25;;;;;;;34.10;23.70;;;;;;;12.40;77.23;99918.77;631436;224;24867;-78
2021/05/01 09:49:02;;;;;;;28.67;24.17;;;;;;;12.53;73.60;99904.38;628975;224;33035;-79
2021/05/01 09:51:32;;;;;;;24.47;20.10;;;;;;;12.59;75.82;99907.65;633248;225;24858;-78
2021/05/01 09:54:00;;;;;;;23.43;18.70;;;;;;;12.19;75.23;99905.39;636568;225;24881;-80
2021/05/01 09:56:29;;;;;;;22.77;18.50;;;;;;;12.39;75.74;99905.40;641702;220;24833;-80
2021/05/01 09:58:58;;;;;;;20.50;16.70;;;;;;;12.47;75.86;99900.16;640130;222;24825;-79
2021/05/01 10:01:26;;;;;;;22.27;18.20;;;;;;;12.12;77.39;99909.16;642829;221;24844;-78
2021/05/01 10:04:04;;;;;;;22.13;16.83;;;;;;;11.77;75.68;99906.30;637669;224;24859;-76
2021/05/01 10:06:32;;;;;;;18.80;16.70;;;;;;;12.39;74.62;99905.40;641522;220;24857;-78
2021/05/01 10:09:00;;;;;;;18.53;14.30;;;;;;;12.15;73.74;99889.27;627803;224;26979;-77
2021/05/01 10:11:29;;;;;;;17.30;14.83;;;;;;;12.18;73.28;99884.20;645601;221;24815;-78
2021/05/01 10:13:56;;;;;;;27.43;17.30;;;;;;;12.10;74.03;99890.22;630974;225;24897;-78
2021/05/01 10:16:26;;;;;;;20.57;16.33;;;;;;;12.15;73.59;99886.66;638383;224;23815;-77
2021/05/01 10:19:06;;;;;;;18.87;15.37;;;;;;;12.37;72.85;99881.25;638739;221;24820;-78
2021/05/01 10:21:34;;;;;;;19.17;16.42;;;;;;;12.59;70.23;99868.02;639017;221;32732;-78
2021/05/01 10:24:03;;;;;;;18.87;15.67;;;;;;;12.63;71.23;99871.11;640759;221;22719;-79
2021/05/01 10:26:41;;;;;;;17.70;15.80;;;;;;;12.61;71.84;99867.85;644486;221;25867;-78
2021/05/01 10:29:10;;;;;;;20.07;14.13;;;;;;;12.85;70.57;99869.09;638834;221;24827;-79
2021/05/01 10:31:51;;;;;;;18.00;13.90;;;;;;;13.10;70.45;99877.66;624502;226;24931;-79
2021/05/01 10:34:14;;;;;;;16.23;13.70;;;;;;;13.18;69.01;99879.41;640401;224;24843;-79
2021/05/01 10:36:42;;;;;;;17.92;14.07;;;;;;;13.52;65.73;99853.80;631830;224;32864;-80
2021/05/01 10:39:10;;;;;;;16.48;14.30;;;;;;;13.96;64.79;99850.55;632408;223;32819;-80
2021/05/01 10:41:38;;;;;;;21.50;14.47;;;;;;;13.88;66.99;99858.44;640910;222;23677;-79
2021/05/01 10:44:07;;;;;;;16.30;13.23;;;;;;;13.27;66.42;99859.66;627049;225;25925;-78
2021/05/01 10:46:35;;;;;;;15.00;13.10;;;;;;;13.03;67.25;99861.03;629193;225;24904;-80
2021/05/01 10:49:03;;;;;;;15.87;13.10;;;;;;;13.10;66.44;99850.73;640341;221;24837;-79
2021/05/01 10:51:31;;;;;;;15.53;13.90;;;;;;;13.73;66.30;99851.05;641135;221;24826;-78
2021/05/01 10:54:07;;;;;;;15.57;12.70;;;;;;;13.90;64.70;99843.39;630989;225;24881;-78
2021/05/01 10:56:36;;;;;;;15.13;13.10;;;;;;;14.53;63.91;99840.89;632718;225;24887;-78
2021/05/01 10:59:08;;;;;;;17.03;13.20;;;;;;;14.71;65.06;99838.72;645614;220;24839;-72
2021/05/01 11:01:37;;;;;;;20.57;14.43;;;;;;;14.41;64.29;99837.06;632831;225;23852;-73
2021/05/01 11:04:04;;;;;;;16.90;14.10;;;;;;;13.96;64.61;99834.86;635572;221;32762;-72
2021/05/01 11:06:37;;;;;;;15.97;13.67;;;;;;;13.44;66.73;99840.78;641442;221;23688;-73
2021/05/01 11:09:05;;;;;;;19.30;15.43;;;;;;;13.36;66.74;99840.81;638183;221;43585;-72
2021/05/01 11:11:35;;;;;;;19.10;15.80;;;;;;;13.58;68.73;99846.56;639240;222;43469;-72
2021/05/01 11:14:08;;;;;;;17.00;14.40;;;;;;;13.68;65.47;99838.51;634438;225;24001;-72
2021/05/01 11:16:39;;;;;;;17.70;14.00;;;;;;;14.11;65.09;99842.25;643972;221;24824;-72
2021/05/01 11:19:07;;;;;;;17.53;13.80;;;;;;;13.95;63.44;99829.31;644063;222;23850;-73
2021/05/01 11:21:35;;;;;;;18.10;14.85;;;;;;;13.99;64.05;99820.13;624263;225;42767;-72
2021/05/01 11:24:03;;;;;;;18.10;13.97;;;;;;;14.65;64.71;99825.56;626326;225;22764;-74
2021/05/01 11:26:31;;;;;;;17.20;14.27;;;;;;;14.64;64.61;99818.20;647707;221;23889;-75